Time,TemperatureF,DewpointF,PressureIn,WindDirection,WindDirectionDegrees,WindSpeedMPH,WindSpeedGustMPH,Humidity,HourlyPrecipIn,Conditions,Clouds,dailyrainin,SolarRadiationWatts/m^2,SoftwareType,DateUTC
2013-03-10 00:00:00,49.7,45.7,30.29,WSW,247,1.6,3.5,86,0.00,OVC,,0.00,0.0,WeatherDisplay:10.37,2013-03-10 08:00:00,
2013-03-10 00:05:00,49.7,46.0,30.29,WSW,243,0.0,1.1,87,0.00,OVC,,0.00,0.0,WeatherDisplay:10.37,2013-03-10 08:05:00,
2013-03-10 00:10:00,49.7,46.0,30.28,WSW,243,2.4,3.5,87,0.00,OVC,,0.00,0.0,WeatherDisplay:10.37,2013-03-10 08:10:00,
2013-03-10 00:15:00,49.6,45.9,30.28,WSW,243,0.3,2.3,87,0.00,OVC,,0.00,0.0,WeatherDisplay:10.37,2013-03-10 08:15:00,
2013-03-10 00:20:00,49.6,45.9,30.28,WSW,243,0.0,0.0,87,0.00,OVC,,0.00,0.0,WeatherDisplay:10.37,2013-03-10 08:20:00,
2013-03-10 00:25:00,49.5,46.1,30.28,WSW,243,0.0,0.0,88,0.00,OVC,,0.00,0.0,WeatherDisplay:10.37,2013-03-10 08:25:00,
2013-03-10 00:30:00,49.4,46.0,30.28,WSW,243,0.3,2.3,88,0.00,OVC,,0.00,0.0,WeatherDisplay:10.37,2013-03-10 08:30:00,
2013-03-10 00:35:00,49.4,46.0,30.28,WSW,244,2.7,3.5,88,0.00,OVC,,0.00,0.0,WeatherDisplay:10.37,2013-03-10 08:35:00,
2013-03-10 00:40:00,49.4,46.0,30.28,WSW,244,0.0,0.0,88,0.00,OVC,,0.00,0.0,WeatherDisplay:10.37,2013-03-10 08:40:00,
2013-03-10 00:45:00,49.4,46.3,30.29,WSW,244,0.0,0.0,89,0.00,OVC,,0.00,0.0,WeatherDisplay:10.37,2013-03-10 08:45:00,
2013-03-10 00:50:00,49.4,46.3,30.28,WSW,243,0.0,1.1,89,0.00,OVC,,0.00,0.0,WeatherDisplay:10.37,2013-03-10 08:50:00,
2013-03-10 00:55:00,49.2,46.1,30.29,WSW,243,0.0,0.0,89,0.00,OVC,,0.00,0.0,WeatherDisplay:10.37,2013-03-10 08:55:00,
2013-03-10 01:00:00,49.1,45.7,30.29,WSW,244,0.0,0.0,88,0.00,OVC,,0.00,0.0,WeatherDisplay:10.37,2013-03-10 09:00:00,
2013-03-10 01:05:00,48.9,45.5,30.29,WSW,243,1.5,3.5,88,0.00,OVC,,0.00,0.0,WeatherDisplay:10.37,2013-03-10 09:05:00,
2013-03-10 01:11:00,48.7,45.3,30.29,WSW,244,0.0,0.0,88,0.00,OVC,,0.00,0.0,WeatherDisplay:10.37,2013-03-10 09:11:00,
2013-03-10 01:16:00,48.5,45.1,30.29,WSW,244,0.0,0.0,88,0.00,OVC,,0.00,0.0,WeatherDisplay:10.37,2013-03-10 09:16:00,
2013-03-10 01:21:00,48.4,45.0,30.29,WSW,244,0.0,1.1,88,0.00,OVC,,0.00,0.0,WeatherDisplay:10.37,2013-03-10 09:21:00,
2013-03-10 01:26:00,48.3,44.9,30.29,WSW,244,0.0,0.0,88,0.00,OVC,,0.00,0.0,WeatherDisplay:10.37,2013-03-10 09:26:00,
2013-03-10 01:31:00,48.1,44.7,30.29,WSW,244,0.0,0.0,88,0.00,OVC,,0.00,0.0,WeatherDisplay:10.37,2013-03-10 09:31:00,
2013-03-10 01:36:00,48.0,44.6,30.29,WSW,243,0.0,0.0,88,0.00,OVC,,0.00,0.0,WeatherDisplay:10.37,2013-03-10 09:36:00,
2013-03-10 01:41:00,48.0,44.9,30.29,WSW,244,0.0,0.0,89,0.00,OVC,,0.00,0.0,WeatherDisplay:10.37,2013-03-10 09:41:00,
2013-03-10 01:46:00,47.9,44.8,30.29,WSW,243,0.0,0.0,89,0.00,OVC,,0.00,0.0,WeatherDisplay:10.37,2013-03-10 09:46:00,
2013-03-10 01:51:00,48.0,45.2,30.29,WSW,244,1.7,3.5,90,0.00,OVC,,0.00,0.0,WeatherDisplay:10.37,2013-03-10 09:51:00,
2013-03-10 01:56:00,48.1,45.0,30.30,WSW,244,1.7,3.5,89,0.00,OVC,,0.00,0.0,WeatherDisplay:10.37,2013-03-10 09:56:00,
2013-03-10 03:01:00,48.2,45.1,30.30,WSW,244,0.2,1.1,89,0.00,OVC,,0.00,0.0,WeatherDisplay:10.37,2013-03-10 10:01:00,
2013-03-10 03:06:00,48.1,44.7,30.30,WSW,245,0.0,0.0,88,0.00,OVC,,0.00,0.0,WeatherDisplay:10.37,2013-03-10 10:06:00,
2013-03-10 03:11:00,47.9,44.5,30.29,WSW,244,0.0,0.0,88,0.00,OVC,,0.00,0.0,WeatherDisplay:10.37,2013-03-10 10:11:00,
2013-03-10 03:16:00,47.9,44.5,30.28,WSW,244,0.0,0.0,88,0.00,OVC,,0.00,0.0,WeatherDisplay:10.37,2013-03-10 10:16:00,
2013-03-10 03:21:00,47.8,44.4,30.28,WSW,245,0.0,0.0,88,0.00,OVC,,0.00,0.0,WeatherDisplay:10.37,2013-03-10 10:21:00,
2013-03-10 03:26:00,47.6,44.2,30.28,WSW,244,0.0,0.0,88,0.00,OVC,,0.00,0.0,WeatherDisplay:10.37,2013-03-10 10:26:00,
2013-03-10 03:31:00,47.5,44.1,30.28,WSW,245,0.0,0.0,88,0.00,OVC,,0.00,0.0,WeatherDisplay:10.37,2013-03-10 10:31:00,
2013-03-10 03:36:00,47.5,44.4,30.28,WSW,245,0.0,0.0,89,0.00,OVC,,0.00,0.0,WeatherDisplay:10.37,2013-03-10 10:36:00,
2013-03-10 03:41:00,47.7,44.6,30.28,WSW,245,0.0,0.0,89,0.00,OVC,,0.00,0.0,WeatherDisplay:10.37,2013-03-10 10:41:00,
2013-03-10 03:46:00,47.7,44.6,30.28,WSW,245,0.0,0.0,89,0.00,OVC,,0.00,0.0,WeatherDisplay:10.37,2013-03-10 10:46:00,
2013-03-10 03:51:00,47.7,44.6,30.28,WSW,245,0.0,0.0,89,0.00,OVC,,0.00,0.0,WeatherDisplay:10.37,2013-03-10 10:51:00,
2013-03-10 03:56:00,47.6,44.5,30.28,WSW,244,0.0,0.0,89,0.00,OVC,,0.00,0.0,WeatherDisplay:10.37,2013-03-10 10:56:00,
2013-03-10 04:01:00,47.5,44.4,30.28,WSW,244,0.0,0.0,89,0.00,OVC,,0.00,0.0,WeatherDisplay:10.37,2013-03-10 11:01:00,
2013-03-10 04:06:00,47.3,44.2,30.28,WSW,245,0.0,0.0,89,0.00,OVC,,0.00,0.0,WeatherDisplay:10.37,2013-03-10 11:06:00,
2013-03-10 04:11:00,47.1,44.0,30.28,WSW,245,0.0,0.0,89,0.00,OVC,,0.00,0.0,WeatherDisplay:10.37,2013-03-10 11:11:00,
2013-03-10 04:16:00,47.0,43.9,30.28,WSW,244,0.0,0.0,89,0.00,OVC,,0.00,0.0,WeatherDisplay:10.37,2013-03-10 11:16:00,
2013-03-10 04:21:00,47.0,43.9,30.28,WSW,245,0.0,0.0,89,0.00,OVC,,0.00,0.0,WeatherDisplay:10.37,2013-03-10 11:21:00,
2013-03-10 04:26:00,47.0,44.2,30.28,WSW,244,0.0,0.0,90,0.00,OVC,,0.00,0.0,WeatherDisplay:10.37,2013-03-10 11:26:00,
2013-03-10 04:31:00,47.0,44.2,30.28,WSW,245,0.0,0.0,90,0.00,OVC,,0.00,0.0,WeatherDisplay:10.37,2013-03-10 11:31:00,
2013-03-10 04:36:00,46.9,44.1,30.28,WSW,244,0.0,0.0,90,0.00,OVC,,0.00,0.0,WeatherDisplay:10.37,2013-03-10 11:36:00,
2013-03-10 04:41:00,46.8,43.7,30.28,WSW,244,0.0,0.0,89,0.00,OVC,,0.00,0.0,WeatherDisplay:10.37,2013-03-10 11:41:00,
2013-03-10 04:46:00,46.7,43.9,30.28,WSW,244,0.0,0.0,90,0.00,OVC,,0.00,0.0,WeatherDisplay:10.37,2013-03-10 11:46:00,
2013-03-10 04:51:00,46.5,43.4,30.28,WSW,245,0.0,0.0,89,0.00,OVC,,0.00,0.0,WeatherDisplay:10.37,2013-03-10 11:51:00,
2013-03-10 04:56:00,46.4,43.3,30.28,WSW,245,0.0,0.0,89,0.00,OVC,,0.00,0.0,WeatherDisplay:10.37,2013-03-10 11:56:00,
2013-03-10 05:01:00,46.2,43.4,30.28,WSW,244,0.0,0.0,90,0.00,OVC,,0.00,0.0,WeatherDisplay:10.37,2013-03-10 12:01:00,
2013-03-10 05:06:00,46.1,43.3,30.28,WSW,245,0.0,0.0,90,0.00,OVC,,0.00,0.0,WeatherDisplay:10.37,2013-03-10 12:06:00,
2013-03-10 05:11:00,46.0,43.2,30.28,WSW,245,0.0,0.0,90,0.00,OVC,,0.00,0.0,WeatherDisplay:10.37,2013-03-10 12:11:00,
2013-03-10 05:16:00,45.9,43.1,30.28,WSW,244,0.0,0.0,90,0.00,OVC,,0.00,0.0,WeatherDisplay:10.37,2013-03-10 12:16:00,
2013-03-10 05:21:00,45.8,43.0,30.28,WSW,245,0.0,0.0,90,0.00,OVC,,0.00,0.0,WeatherDisplay:10.37,2013-03-10 12:21:00,
2013-03-10 05:26:00,45.8,43.0,30.28,WSW,245,0.0,0.0,90,0.00,OVC,,0.00,0.0,WeatherDisplay:10.37,2013-03-10 12:26:00,
2013-03-10 05:31:00,45.7,42.9,30.29,WSW,244,0.0,0.0,90,0.00,OVC,,0.00,0.0,WeatherDisplay:10.37,2013-03-10 12:31:00,
2013-03-10 05:36:00,45.7,42.9,30.30,WSW,245,0.0,0.0,90,0.00,OVC,,0.00,0.0,WeatherDisplay:10.37,2013-03-10 12:36:00,
2013-03-10 05:41:00,45.7,43.2,30.30,WSW,245,0.0,0.0,91,0.00,OVC,,0.00,0.0,WeatherDisplay:10.37,2013-03-10 12:41:00,
2013-03-10 05:46:00,45.8,43.0,30.29,WSW,245,0.0,0.0,90,0.00,OVC,,0.00,0.0,WeatherDisplay:10.37,2013-03-10 12:46:00,
2013-03-10 05:51:00,45.7,42.9,30.30,WSW,245,0.0,0.0,90,0.00,OVC,,0.00,0.0,WeatherDisplay:10.37,2013-03-10 12:51:00,
2013-03-10 05:56:00,45.6,42.8,30.29,WSW,245,0.0,0.0,90,0.00,OVC,,0.00,0.0,WeatherDisplay:10.37,2013-03-10 12:56:00,
2013-03-10 06:01:00,45.5,42.7,30.30,WSW,244,0.0,0.0,90,0.00,OVC,,0.00,0.0,WeatherDisplay:10.37,2013-03-10 13:01:00,
2013-03-10 06:06:00,45.5,42.7,30.30,WSW,245,0.0,0.0,90,0.00,OVC,,0.00,0.0,WeatherDisplay:10.37,2013-03-10 13:06:00,
2013-03-10 06:11:00,45.5,42.7,30.29,WSW,245,0.0,0.0,90,0.00,OVC,,0.00,0.0,WeatherDisplay:10.37,2013-03-10 13:11:00,
2013-03-10 06:16:00,45.4,42.6,30.29,WSW,244,0.0,0.0,90,0.00,OVC,,0.00,0.0,WeatherDisplay:10.37,2013-03-10 13:16:00,
2013-03-10 06:22:00,45.4,42.6,30.29,WSW,245,0.0,0.0,90,0.00,OVC,,0.00,0.0,WeatherDisplay:10.37,2013-03-10 13:22:00,
2013-03-10 06:27:00,45.3,42.5,30.29,WSW,245,0.0,0.0,90,0.00,OVC,,0.00,0.0,WeatherDisplay:10.37,2013-03-10 13:27:00,
2013-03-10 06:32:00,45.2,42.2,30.30,West,263,3.3,4.6,89,0.00,OVC,,0.00,0.0,WeatherDisplay:10.37,2013-03-10 13:32:00,
2013-03-10 06:37:00,45.1,42.3,30.29,West,263,0.1,1.0,90,0.00,OVC,,0.00,0.0,WeatherDisplay:10.37,2013-03-10 13:37:00,
2013-03-10 06:42:00,45.1,42.3,30.29,West,263,0.0,0.0,90,0.00,OVC,,0.00,0.0,WeatherDisplay:10.37,2013-03-10 13:42:00,
2013-03-10 06:47:00,45.1,42.3,30.29,West,263,0.0,0.0,90,0.00,OVC,,0.00,0.0,WeatherDisplay:10.37,2013-03-10 13:47:00,
2013-03-10 06:52:00,45.0,42.2,30.30,West,263,0.0,0.0,90,0.00,OVC,,0.00,0.0,WeatherDisplay:10.37,2013-03-10 13:52:00,
2013-03-10 06:57:00,45.1,42.3,30.29,West,263,0.0,0.0,90,0.00,OVC,,0.00,0.0,WeatherDisplay:10.37,2013-03-10 13:57:00,
2013-03-10 07:02:00,45.0,42.2,30.29,West,263,0.0,0.0,90,0.00,OVC,,0.00,0.0,WeatherDisplay:10.37,2013-03-10 14:02:00,
2013-03-10 07:07:00,44.9,42.1,30.29,West,263,0.0,0.0,90,0.00,OVC,,0.00,0.0,WeatherDisplay:10.37,2013-03-10 14:07:00,
2013-03-10 07:12:00,44.8,42.0,30.29,West,263,0.0,0.0,90,0.00,OVC,,0.00,0.0,WeatherDisplay:10.37,2013-03-10 14:12:00,
2013-03-10 07:17:00,44.7,41.9,30.30,West,263,0.0,0.0,90,0.00,OVC,,0.00,0.0,WeatherDisplay:10.37,2013-03-10 14:17:00,
2013-03-10 07:22:00,44.7,41.9,30.30,West,263,0.0,0.0,90,0.00,SCT,,0.00,7.0,WeatherDisplay:10.37,2013-03-10 14:22:00,
2013-03-10 07:27:00,44.7,41.9,30.30,West,263,0.0,0.0,90,0.00,BKN,,0.00,9.0,WeatherDisplay:10.37,2013-03-10 14:27:00,
2013-03-10 07:32:00,44.7,41.9,30.30,West,263,0.0,0.0,90,0.00,BKN,,0.00,12.0,WeatherDisplay:10.37,2013-03-10 14:32:00,
2013-03-10 07:37:00,44.7,41.9,30.30,West,263,0.0,0.0,90,0.00,BKN,,0.00,18.0,WeatherDisplay:10.37,2013-03-10 14:37:00,
2013-03-10 07:42:00,44.8,42.3,30.31,West,263,0.0,0.0,91,0.00,BKN,,0.00,23.0,WeatherDisplay:10.37,2013-03-10 14:42:00,
2013-03-10 07:47:00,44.9,42.1,30.31,West,263,0.0,0.0,90,0.00,SCT,,0.00,49.0,WeatherDisplay:10.37,2013-03-10 14:47:00,
2013-03-10 07:52:00,45.1,42.6,30.31,West,263,0.0,0.0,91,0.00,FEW,,0.00,65.0,WeatherDisplay:10.37,2013-03-10 14:52:00,
2013-03-10 07:57:00,45.3,42.8,30.31,West,263,0.0,0.0,91,0.00,FEW,,0.00,81.0,WeatherDisplay:10.37,2013-03-10 14:57:00,
2013-03-10 08:02:00,45.8,43.3,30.31,West,263,0.0,0.0,91,0.00,CLR,,0.00,98.0,WeatherDisplay:10.37,2013-03-10 15:02:00,
2013-03-10 08:07:00,46.3,43.8,30.32,West,263,0.0,0.0,91,0.00,CLR,,0.00,113.0,WeatherDisplay:10.37,2013-03-10 15:07:00,
2013-03-10 08:12:00,46.6,44.1,30.32,West,263,0.0,0.0,91,0.00,CLR,,0.00,127.0,WeatherDisplay:10.37,2013-03-10 15:12:00,
2013-03-10 08:17:00,47.2,45.0,30.32,West,264,0.0,0.0,92,0.00,CLR,,0.00,139.0,WeatherDisplay:10.37,2013-03-10 15:17:00,
2013-03-10 08:22:00,48.3,45.8,30.32,West,263,0.0,0.0,91,0.00,CLR,,0.00,151.0,WeatherDisplay:10.37,2013-03-10 15:22:00,
2013-03-10 08:27:00,49.2,46.1,30.32,West,264,0.0,0.0,89,0.00,CLR,,0.00,163.0,WeatherDisplay:10.37,2013-03-10 15:27:00,
2013-03-10 08:32:00,50.1,46.7,30.32,West,263,0.0,0.0,88,0.00,CLR,,0.00,178.0,WeatherDisplay:10.37,2013-03-10 15:32:00,
2013-03-10 08:37:00,50.9,47.2,30.32,West,263,0.0,0.0,87,0.00,CLR,,0.00,199.0,WeatherDisplay:10.37,2013-03-10 15:37:00,
2013-03-10 08:43:00,51.7,47.6,30.32,West,263,0.0,0.0,86,0.00,CLR,,0.00,220.0,WeatherDisplay:10.37,2013-03-10 15:43:00,
2013-03-10 08:48:00,52.5,48.4,30.32,West,263,0.0,0.0,86,0.00,CLR,,0.00,246.0,WeatherDisplay:10.37,2013-03-10 15:48:00,
2013-03-10 08:53:00,53.2,48.8,30.33,West,263,0.0,0.0,85,0.00,CLR,,0.00,276.0,WeatherDisplay:10.37,2013-03-10 15:53:00,
2013-03-10 08:58:00,53.8,49.1,30.32,SW,224,0.6,2.3,84,0.00,CLR,,0.00,297.0,WeatherDisplay:10.37,2013-03-10 15:58:00,
2013-03-10 09:03:00,54.2,49.1,30.33,SW,224,0.0,1.1,83,0.00,CLR,,0.00,313.0,WeatherDisplay:10.37,2013-03-10 16:03:00,
2013-03-10 09:08:00,54.7,49.6,30.33,SW,224,0.0,0.0,83,0.00,CLR,,0.00,302.0,WeatherDisplay:10.37,2013-03-10 16:08:00,
2013-03-10 09:13:00,55.2,49.5,30.33,SW,224,2.3,3.5,81,0.00,CLR,,0.00,279.0,WeatherDisplay:10.37,2013-03-10 16:13:00,
2013-03-10 09:18:00,55.3,49.6,30.33,SW,224,1.9,3.0,81,0.00,FEW,,0.00,269.0,WeatherDisplay:10.37,2013-03-10 16:18:00,
2013-03-10 09:26:00,55.4,49.3,30.33,SW,224,0.6,3.5,80,0.00,FEW,,0.00,281.0,WeatherDisplay:10.37,2013-03-10 16:26:00,
2013-03-10 09:31:00,55.6,49.9,30.33,SW,224,0.0,0.0,81,0.00,CLR,,0.00,352.0,WeatherDisplay:10.37,2013-03-10 16:31:00,
2013-03-10 09:36:00,55.8,50.1,30.33,SW,223,0.0,1.1,81,0.00,CLR,,0.00,373.0,WeatherDisplay:10.37,2013-03-10 16:36:00,
2013-03-10 09:41:00,56.1,50.3,30.33,SW,223,0.3,2.3,81,0.00,CLR,,0.00,406.0,WeatherDisplay:10.37,2013-03-10 16:41:00,
2013-03-10 09:46:00,56.3,50.2,30.33,SW,223,1.3,3.5,80,0.00,CLR,,0.00,417.0,WeatherDisplay:10.37,2013-03-10 16:46:00,
2013-03-10 09:51:00,56.3,50.2,30.33,SW,224,0.4,2.3,80,0.00,CLR,,0.00,422.0,WeatherDisplay:10.37,2013-03-10 16:51:00,
2013-03-10 09:56:00,56.5,50.4,30.34,SW,223,0.1,1.1,80,0.00,CLR,,0.00,473.0,WeatherDisplay:10.37,2013-03-10 16:56:00,
2013-03-10 10:01:00,56.5,49.7,30.33,SW,224,0.2,1.1,78,0.00,CLR,,0.00,489.0,WeatherDisplay:10.37,2013-03-10 17:01:00,
2013-03-10 10:06:00,56.6,50.2,30.33,SW,224,0.0,0.0,79,0.00,CLR,,0.00,506.0,WeatherDisplay:10.37,2013-03-10 17:06:00,
2013-03-10 10:11:00,57.1,50.6,30.33,SW,224,0.2,2.3,79,0.00,CLR,,0.00,503.0,WeatherDisplay:10.37,2013-03-10 17:11:00,
2013-03-10 10:16:00,57.7,50.9,30.33,SW,224,0.3,1.1,78,0.00,CLR,,0.00,529.0,WeatherDisplay:10.37,2013-03-10 17:16:00,
2013-03-10 10:21:00,58.3,50.8,30.33,SW,224,0.6,3.5,76,0.00,CLR,,0.00,563.0,WeatherDisplay:10.37,2013-03-10 17:21:00,
2013-03-10 10:26:00,58.9,50.3,30.33,SW,224,0.0,0.0,73,0.00,CLR,,0.00,578.0,WeatherDisplay:10.37,2013-03-10 17:26:00,
2013-03-10 10:31:00,59.3,49.9,30.33,SW,223,1.1,3.5,71,0.00,CLR,,0.00,506.0,WeatherDisplay:10.37,2013-03-10 17:31:00,
2013-03-10 10:36:00,59.8,50.4,30.32,SW,223,0.2,2.0,71,0.00,CLR,,0.00,596.0,WeatherDisplay:10.37,2013-03-10 17:36:00,
2013-03-10 10:41:00,60.3,50.1,30.32,SW,223,0.0,0.0,69,0.00,CLR,,0.00,596.0,WeatherDisplay:10.37,2013-03-10 17:41:00,
2013-03-10 10:46:00,60.3,48.5,30.32,SW,223,2.7,3.5,65,0.00,CLR,,0.00,580.0,WeatherDisplay:10.37,2013-03-10 17:46:00,
2013-03-10 10:51:00,59.5,48.1,30.32,SSW,193,0.6,2.3,66,0.00,CLR,,0.00,657.0,WeatherDisplay:10.37,2013-03-10 17:51:00,
2013-03-10 10:56:00,59.6,48.6,30.32,SSW,193,0.2,2.3,67,0.00,CLR,,0.00,450.0,WeatherDisplay:10.37,2013-03-10 17:56:00,
2013-03-10 11:01:00,59.8,48.8,30.32,SSW,193,1.1,2.3,67,0.00,CLR,,0.00,554.0,WeatherDisplay:10.37,2013-03-10 18:01:00,
2013-03-10 11:06:00,60.4,49.0,30.32,SSW,193,0.0,2.3,66,0.00,CLR,,0.00,587.0,WeatherDisplay:10.37,2013-03-10 18:06:00,
2013-03-10 11:11:00,60.9,48.2,30.32,SSW,193,0.1,0.0,63,0.00,CLR,,0.00,464.0,WeatherDisplay:10.37,2013-03-10 18:11:00,
2013-03-10 11:16:00,61.4,47.4,30.32,SSW,192,2.6,3.5,60,0.00,FEW,,0.00,573.0,WeatherDisplay:10.37,2013-03-10 18:16:00,
2013-03-10 11:21:00,61.9,46.0,30.32,SSW,192,1.5,3.5,56,0.00,CLR,,0.00,684.0,WeatherDisplay:10.37,2013-03-10 18:21:00,
2013-03-10 11:26:00,62.3,44.9,30.32,South,188,1.1,3.5,53,0.00,CLR,,0.00,700.0,WeatherDisplay:10.37,2013-03-10 18:26:00,
2013-03-10 11:31:00,62.7,45.8,30.32,SE,132,0.3,3.5,54,0.00,CLR,,0.00,452.0,WeatherDisplay:10.37,2013-03-10 18:31:00,
2013-03-10 11:36:00,62.8,44.4,30.32,SE,142,0.5,3.5,51,0.00,SCT,,0.00,330.0,WeatherDisplay:10.37,2013-03-10 18:36:00,
2013-03-10 11:41:00,62.6,44.7,30.32,SE,143,1.0,3.5,52,0.00,SCT,,0.00,279.0,WeatherDisplay:10.37,2013-03-10 18:41:00,
2013-03-10 11:46:00,62.3,44.4,30.32,SE,143,2.2,3.5,52,0.00,BKN,,0.00,464.0,WeatherDisplay:10.37,2013-03-10 18:46:00,
2013-03-10 11:51:00,62.2,44.9,30.31,SE,143,0.0,0.0,53,0.00,SCT,,0.00,624.0,WeatherDisplay:10.37,2013-03-10 18:51:00,
2013-03-10 11:56:00,62.6,46.2,30.31,SE,143,1.5,3.5,55,0.00,CLR,,0.00,744.0,WeatherDisplay:10.37,2013-03-10 18:56:00,
2013-03-10 12:02:00,63.4,45.5,30.31,SSE,152,1.3,2.3,52,0.00,CLR,,0.00,745.0,WeatherDisplay:10.37,2013-03-10 19:02:00,
2013-03-10 12:07:00,63.9,44.9,30.31,SSE,162,0.3,3.5,50,0.00,CLR,,0.00,740.0,WeatherDisplay:10.37,2013-03-10 19:07:00,
2013-03-10 12:12:00,64.4,46.4,30.31,SSE,163,0.0,0.0,52,0.00,CLR,,0.00,703.0,WeatherDisplay:10.37,2013-03-10 19:12:00,
2013-03-10 12:17:00,64.2,43.0,30.31,WNW,294,1.1,3.5,46,0.00,CLR,,0.00,715.0,WeatherDisplay:10.37,2013-03-10 19:17:00,
2013-03-10 12:22:00,63.6,40.1,30.31,North,5,1.4,3.5,42,0.00,CLR,,0.00,758.0,WeatherDisplay:10.37,2013-03-10 19:22:00,
2013-03-10 12:27:00,63.5,41.2,30.31,East,81,1.9,3.5,44,0.00,CLR,,0.00,763.0,WeatherDisplay:10.37,2013-03-10 19:27:00,
2013-03-10 12:32:00,63.4,40.5,30.30,East,82,1.9,3.5,43,0.00,CLR,,0.00,735.0,WeatherDisplay:10.37,2013-03-10 19:32:00,
2013-03-10 12:37:00,63.6,43.5,30.30,East,81,0.9,3.5,48,0.00,CLR,,0.00,747.0,WeatherDisplay:10.37,2013-03-10 19:37:00,
2013-03-10 12:42:00,63.7,43.1,30.30,East,85,1.6,3.5,47,0.00,CLR,,0.00,738.0,WeatherDisplay:10.37,2013-03-10 19:42:00,
2013-03-10 12:47:00,64.5,46.5,30.30,SE,127,2.8,4.0,52,0.00,CLR,,0.00,744.0,WeatherDisplay:10.37,2013-03-10 19:47:00,
2013-03-10 12:52:00,64.7,46.7,30.30,ENE,59,0.0,0.0,52,0.00,CLR,,0.00,751.0,WeatherDisplay:10.37,2013-03-10 19:52:00,
2013-03-10 12:57:00,64.7,45.6,30.30,ENE,62,0.0,0.0,50,0.00,CLR,,0.00,751.0,WeatherDisplay:10.37,2013-03-10 19:57:00,
2013-03-10 13:02:00,65.1,45.5,30.30,South,171,1.9,3.5,49,0.00,CLR,,0.00,766.0,WeatherDisplay:10.37,2013-03-10 20:02:00,
2013-03-10 13:07:00,66.2,48.0,30.29,SSW,192,2.9,4.0,52,0.00,CLR,,0.00,773.0,WeatherDisplay:10.37,2013-03-10 20:07:00,
2013-03-10 13:12:00,67.0,49.3,30.29,South,176,6.2,9.2,53,0.00,CLR,,0.00,793.0,WeatherDisplay:10.37,2013-03-10 20:12:00,
2013-03-10 13:17:00,67.5,50.3,30.29,South,181,3.4,5.8,54,0.00,CLR,,0.00,728.0,WeatherDisplay:10.37,2013-03-10 20:17:00,
2013-03-10 13:22:00,67.4,48.6,30.29,SSW,212,5.2,5.8,51,0.00,CLR,,0.00,726.0,WeatherDisplay:10.37,2013-03-10 20:22:00,
2013-03-10 13:27:00,66.8,49.1,30.29,WSW,244,5.0,6.9,53,0.00,CLR,,0.00,657.0,WeatherDisplay:10.37,2013-03-10 20:27:00,
2013-03-10 13:32:00,66.3,48.1,30.28,SW,214,3.2,5.0,52,0.00,SCT,,0.00,554.0,WeatherDisplay:10.37,2013-03-10 20:32:00,
2013-03-10 13:37:00,66.1,49.5,30.28,WSW,242,5.1,10.4,55,0.00,SCT,,0.00,680.0,WeatherDisplay:10.37,2013-03-10 20:37:00,
2013-03-10 13:42:00,66.1,50.4,30.28,WSW,238,2.6,6.0,57,0.00,FEW,,0.00,793.0,WeatherDisplay:10.37,2013-03-10 20:42:00,
2013-03-10 13:47:00,65.6,47.5,30.28,WNW,282,4.4,7.0,52,0.00,CLR,,0.00,768.0,WeatherDisplay:10.37,2013-03-10 20:47:00,
2013-03-10 13:52:00,64.5,48.0,30.28,WNW,288,1.5,4.6,55,0.00,CLR,,0.00,761.0,WeatherDisplay:10.37,2013-03-10 20:52:00,
2013-03-10 13:57:00,64.5,47.0,30.28,West,274,2.1,3.5,53,0.00,CLR,,0.00,751.0,WeatherDisplay:10.37,2013-03-10 20:57:00,
2013-03-10 14:02:00,64.7,47.2,30.27,WSW,254,4.0,6.0,53,0.00,CLR,,0.00,752.0,WeatherDisplay:10.37,2013-03-10 21:02:00,
2013-03-10 14:07:00,64.9,47.4,30.27,SW,235,5.1,6.9,53,0.00,CLR,,0.00,751.0,WeatherDisplay:10.37,2013-03-10 21:07:00,
2013-03-10 14:12:00,65.5,47.9,30.27,SSW,210,2.8,5.0,53,0.00,CLR,,0.00,717.0,WeatherDisplay:10.37,2013-03-10 21:12:00,
2013-03-10 14:18:00,66.0,47.9,30.27,WSW,239,8.6,11.5,52,0.00,CLR,,0.00,698.0,WeatherDisplay:10.37,2013-03-10 21:18:00,
2013-03-10 14:23:00,66.2,47.5,30.27,WSW,244,3.7,10.4,51,0.00,CLR,,0.00,714.0,WeatherDisplay:10.37,2013-03-10 21:23:00,
2013-03-10 14:28:00,66.5,46.7,30.26,WSW,242,0.6,2.3,49,0.00,CLR,,0.00,707.0,WeatherDisplay:10.37,2013-03-10 21:28:00,
2013-03-10 14:33:00,66.0,45.2,30.26,West,277,2.8,5.8,47,0.00,CLR,,0.00,701.0,WeatherDisplay:10.37,2013-03-10 21:33:00,
2013-03-10 14:38:00,65.7,44.9,30.26,WSW,251,2.2,6.0,47,0.00,CLR,,0.00,691.0,WeatherDisplay:10.37,2013-03-10 21:38:00,
2013-03-10 14:43:00,65.4,44.6,30.26,WSW,241,4.3,9.2,47,0.00,CLR,,0.00,671.0,WeatherDisplay:10.37,2013-03-10 21:43:00,
2013-03-10 14:48:00,65.7,43.2,30.26,WSW,251,7.5,10.4,44,0.00,CLR,,0.00,668.0,WeatherDisplay:10.37,2013-03-10 21:48:00,
2013-03-10 14:53:00,66.2,44.2,30.26,WSW,247,4.6,7.0,45,0.00,CLR,,0.00,671.0,WeatherDisplay:10.37,2013-03-10 21:53:00,
2013-03-10 14:58:00,66.0,45.7,30.26,SW,231,10.6,16.1,48,0.00,CLR,,0.00,663.0,WeatherDisplay:10.37,2013-03-10 21:58:00,
2013-03-10 15:03:00,65.1,46.5,30.26,SW,235,8.7,12.7,51,0.00,CLR,,0.00,650.0,WeatherDisplay:10.37,2013-03-10 22:03:00,
2013-03-10 15:08:00,64.5,46.5,30.27,SW,227,5.8,12.7,52,0.00,CLR,,0.00,647.0,WeatherDisplay:10.37,2013-03-10 22:08:00,
2013-03-10 15:13:00,64.6,46.6,30.26,SW,231,6.6,11.5,52,0.00,CLR,,0.00,633.0,WeatherDisplay:10.37,2013-03-10 22:13:00,
2013-03-10 15:18:00,64.6,45.0,30.26,WSW,248,5.2,10.4,49,0.00,CLR,,0.00,621.0,WeatherDisplay:10.37,2013-03-10 22:18:00,
2013-03-10 15:23:00,64.9,45.8,30.26,SW,224,3.2,6.9,50,0.00,CLR,,0.00,617.0,WeatherDisplay:10.37,2013-03-10 22:23:00,
2013-03-10 15:28:00,65.6,45.9,30.26,SW,227,5.8,10.4,49,0.00,CLR,,0.00,606.0,WeatherDisplay:10.37,2013-03-10 22:28:00,
2013-03-10 15:33:00,65.9,46.2,30.26,WSW,242,4.7,9.2,49,0.00,CLR,,0.00,592.0,WeatherDisplay:10.37,2013-03-10 22:33:00,
2013-03-10 15:38:00,66.4,43.2,30.26,SW,229,3.6,5.8,43,0.00,CLR,,0.00,582.0,WeatherDisplay:10.37,2013-03-10 22:38:00,
2013-03-10 15:43:00,66.7,41.6,30.26,WSW,239,6.3,10.4,40,0.00,CLR,,0.00,570.0,WeatherDisplay:10.37,2013-03-10 22:43:00,
2013-03-10 15:48:00,66.7,41.6,30.26,WSW,237,5.9,10.4,40,0.00,CLR,,0.00,557.0,WeatherDisplay:10.37,2013-03-10 22:48:00,
2013-03-10 15:53:00,66.7,41.6,30.26,WSW,245,3.7,5.8,40,0.00,CLR,,0.00,543.0,WeatherDisplay:10.37,2013-03-10 22:53:00,
2013-03-10 15:58:00,67.2,41.4,30.25,West,270,3.4,5.8,39,0.00,CLR,,0.00,533.0,WeatherDisplay:10.37,2013-03-10 22:58:00,
2013-03-10 16:03:00,67.7,41.2,30.26,West,262,5.1,6.9,38,0.00,CLR,,0.00,522.0,WeatherDisplay:10.37,2013-03-10 23:03:00,
2013-03-10 16:08:00,67.8,41.9,30.25,West,269,1.9,4.6,39,0.00,CLR,,0.00,510.0,WeatherDisplay:10.37,2013-03-10 23:08:00,
2013-03-10 16:13:00,67.7,42.5,30.26,SW,227,4.3,10.4,40,0.00,CLR,,0.00,496.0,WeatherDisplay:10.37,2013-03-10 23:13:00,
2013-03-10 16:18:00,67.6,41.1,30.26,WNW,287,7.8,12.7,38,0.00,CLR,,0.00,478.0,WeatherDisplay:10.37,2013-03-10 23:18:00,
2013-03-10 16:23:00,67.2,43.3,30.26,SW,235,5.6,11.5,42,0.00,CLR,,0.00,462.0,WeatherDisplay:10.37,2013-03-10 23:23:00,
2013-03-10 16:28:00,67.0,41.9,30.26,WSW,254,9.3,12.0,40,0.00,CLR,,0.00,443.0,WeatherDisplay:10.37,2013-03-10 23:28:00,
2013-03-10 16:33:00,66.0,41.0,30.26,West,273,7.1,12.7,40,0.00,CLR,,0.00,425.0,WeatherDisplay:10.37,2013-03-10 23:33:00,
2013-03-10 16:38:00,65.3,41.0,30.25,SW,232,3.5,9.2,41,0.00,CLR,,0.00,404.0,WeatherDisplay:10.37,2013-03-10 23:38:00,
2013-03-10 16:43:00,64.6,41.6,30.25,WSW,249,3.9,6.0,43,0.00,CLR,,0.00,396.0,WeatherDisplay:10.37,2013-03-10 23:43:00,
2013-03-10 16:48:00,64.8,42.4,30.25,SW,217,3.8,5.8,44,0.00,CLR,,0.00,387.0,WeatherDisplay:10.37,2013-03-10 23:48:00,
2013-03-10 16:53:00,65.0,41.3,30.25,West,279,5.6,8.1,42,0.00,CLR,,0.00,376.0,WeatherDisplay:10.37,2013-03-10 23:53:00,
2013-03-10 16:58:00,64.7,42.3,30.25,North,10,4.4,6.0,44,0.00,CLR,,0.00,362.0,WeatherDisplay:10.37,2013-03-10 23:58:00,
2013-03-10 17:03:00,65.1,42.6,30.25,West,271,0.9,8.1,44,0.00,CLR,,0.00,350.0,WeatherDisplay:10.37,2013-03-11 00:03:00,
2013-03-10 17:08:00,65.1,40.8,30.24,WSW,248,3.2,5.8,41,0.00,CLR,,0.00,330.0,WeatherDisplay:10.37,2013-03-11 00:08:00,
2013-03-10 17:13:00,65.1,40.8,30.24,SW,219,6.7,10.0,41,0.00,CLR,,0.00,316.0,WeatherDisplay:10.37,2013-03-11 00:13:00,
2013-03-10 17:18:00,65.2,40.9,30.24,SW,229,6.6,6.9,41,0.00,CLR,,0.00,288.0,WeatherDisplay:10.37,2013-03-11 00:18:00,
2013-03-10 17:23:00,65.1,40.8,30.24,West,259,2.1,5.8,41,0.00,CLR,,0.00,269.0,WeatherDisplay:10.37,2013-03-11 00:23:00,
2013-03-10 17:28:00,65.2,40.9,30.24,West,268,3.5,5.8,41,0.00,CLR,,0.00,272.0,WeatherDisplay:10.37,2013-03-11 00:28:00,
2013-03-10 17:33:00,65.4,41.1,30.24,WSW,244,6.1,10.0,41,0.00,CLR,,0.00,258.0,WeatherDisplay:10.37,2013-03-11 00:33:00,
2013-03-10 17:38:00,65.6,40.6,30.24,SW,231,0.9,5.8,40,0.00,CLR,,0.00,246.0,WeatherDisplay:10.37,2013-03-11 00:38:00,
2013-03-10 17:43:00,65.7,40.1,30.24,WSW,237,0.9,3.5,39,0.00,CLR,,0.00,227.0,WeatherDisplay:10.37,2013-03-11 00:43:00,
2013-03-10 17:48:00,65.7,40.7,30.24,SW,223,2.9,10.4,40,0.00,CLR,,0.00,181.0,WeatherDisplay:10.37,2013-03-11 00:48:00,
2013-03-10 17:54:00,65.5,40.5,30.24,SW,229,4.9,6.0,40,0.00,CLR,,0.00,183.0,WeatherDisplay:10.37,2013-03-11 00:54:00,
2013-03-10 17:59:00,65.2,39.6,30.24,SW,220,4.2,9.2,39,0.00,CLR,,0.00,167.0,WeatherDisplay:10.37,2013-03-11 00:59:00,
2013-03-10 18:04:00,64.8,39.9,30.24,SSW,212,4.6,6.9,40,0.00,CLR,,0.00,151.0,WeatherDisplay:10.37,2013-03-11 01:04:00,
2013-03-10 18:09:00,64.5,39.0,30.24,SW,231,4.3,6.9,39,0.00,CLR,,0.00,135.0,WeatherDisplay:10.37,2013-03-11 01:09:00,
2013-03-10 18:14:00,64.1,39.3,30.24,West,275,1.9,3.5,40,0.00,CLR,,0.00,128.0,WeatherDisplay:10.37,2013-03-11 01:14:00,
2013-03-10 18:19:00,63.9,39.1,30.24,SW,231,3.0,9.0,40,0.00,CLR,,0.00,114.0,WeatherDisplay:10.37,2013-03-11 01:19:00,
2013-03-10 18:24:00,63.7,43.1,30.24,SW,226,5.4,10.4,47,0.00,CLR,,0.00,100.0,WeatherDisplay:10.37,2013-03-11 01:24:00,
2013-03-10 18:29:00,62.5,44.6,30.24,SSW,212,4.1,8.1,52,0.00,CLR,,0.00,58.0,WeatherDisplay:10.37,2013-03-11 01:29:00,
2013-03-10 18:34:00,61.4,45.1,30.24,South,188,4.5,5.8,55,0.00,SCT,,0.00,32.0,WeatherDisplay:10.37,2013-03-11 01:34:00,
2013-03-10 18:39:00,60.4,45.5,30.24,WSW,255,4.3,10.4,58,0.00,SCT,,0.00,25.0,WeatherDisplay:10.37,2013-03-11 01:39:00,
2013-03-10 18:44:00,58.9,46.3,30.24,WSW,246,5.5,7.0,63,0.00,SCT,,0.00,21.0,WeatherDisplay:10.37,2013-03-11 01:44:00,
2013-03-10 18:49:00,57.6,46.7,30.25,SW,228,7.6,11.5,67,0.00,CLR,,0.00,18.0,WeatherDisplay:10.37,2013-03-11 01:49:00,
2013-03-10 18:54:00,56.3,47.0,30.24,SW,224,7.6,13.8,71,0.00,CLR,,0.00,14.0,WeatherDisplay:10.37,2013-03-11 01:54:00,
2013-03-10 18:59:00,55.4,46.5,30.24,West,277,8.4,11.5,72,0.00,OVC,,0.00,11.0,WeatherDisplay:10.37,2013-03-11 01:59:00,
2013-03-10 19:04:00,54.4,46.6,30.24,WSW,239,8.1,11.5,75,0.00,OVC,,0.00,9.0,WeatherDisplay:10.37,2013-03-11 02:04:00,
2013-03-10 19:09:00,53.9,46.9,30.24,WSW,237,6.3,10.4,77,0.00,OVC,,0.00,5.0,WeatherDisplay:10.37,2013-03-11 02:09:00,
2013-03-10 19:14:00,53.5,46.5,30.25,SW,222,4.2,11.5,77,0.00,OVC,,0.00,0.0,WeatherDisplay:10.37,2013-03-11 02:14:00,
2013-03-10 19:19:00,53.2,46.5,30.25,WSW,248,5.0,9.2,78,0.00,OVC,,0.00,0.0,WeatherDisplay:10.37,2013-03-11 02:19:00,
2013-03-10 19:24:00,53.0,46.7,30.25,SW,229,4.6,6.0,79,0.00,OVC,,0.00,0.0,WeatherDisplay:10.37,2013-03-11 02:24:00,
2013-03-10 19:29:00,52.9,46.6,30.25,West,263,0.6,2.3,79,0.00,OVC,,0.00,0.0,WeatherDisplay:10.37,2013-03-11 02:29:00,
2013-03-10 19:35:00,52.9,46.6,30.25,WSW,246,4.2,5.8,79,0.00,OVC,,0.00,0.0,WeatherDisplay:10.37,2013-03-11 02:35:00,
2013-03-10 19:39:00,52.9,46.6,30.25,WNW,294,7.2,11.5,79,0.00,OVC,,0.00,0.0,WeatherDisplay:10.37,2013-03-11 02:39:00,
2013-03-10 19:44:00,52.7,46.4,30.25,West,264,4.9,5.0,79,0.00,OVC,,0.00,0.0,WeatherDisplay:10.37,2013-03-11 02:44:00,
2013-03-10 19:49:00,52.6,46.3,30.25,West,264,7.5,9.2,79,0.00,OVC,,0.00,0.0,WeatherDisplay:10.37,2013-03-11 02:49:00,
2013-03-10 19:54:00,52.6,46.3,30.25,WSW,252,3.7,6.9,79,0.00,OVC,,0.00,0.0,WeatherDisplay:10.37,2013-03-11 02:54:00,
2013-03-10 20:00:00,52.5,46.2,30.25,West,272,4.8,6.9,79,0.00,OVC,,0.00,0.0,WeatherDisplay:10.37,2013-03-11 03:00:00,
2013-03-10 20:05:00,52.5,46.2,30.25,WSW,246,5.2,10.4,79,0.00,OVC,,0.00,0.0,WeatherDisplay:10.37,2013-03-11 03:05:00,
2013-03-10 20:10:00,52.4,45.7,30.25,WSW,258,5.8,8.0,78,0.00,OVC,,0.00,0.0,WeatherDisplay:10.37,2013-03-11 03:10:00,
2013-03-10 20:15:00,52.4,45.7,30.25,WSW,237,0.0,1.0,78,0.00,OVC,,0.00,0.0,WeatherDisplay:10.37,2013-03-11 03:15:00,
2013-03-10 20:20:00,52.4,46.1,30.25,WSW,239,3.1,4.6,79,0.00,OVC,,0.00,0.0,WeatherDisplay:10.37,2013-03-11 03:20:00,
2013-03-10 20:25:00,52.4,46.1,30.25,WSW,238,3.6,4.6,79,0.00,OVC,,0.00,0.0,WeatherDisplay:10.37,2013-03-11 03:25:00,
2013-03-10 20:30:00,52.3,46.0,30.25,WSW,237,3.3,4.6,79,0.00,OVC,,0.00,0.0,WeatherDisplay:10.37,2013-03-11 03:30:00,
2013-03-10 20:35:00,52.3,46.0,30.25,WSW,248,0.0,0.0,79,0.00,OVC,,0.00,0.0,WeatherDisplay:10.37,2013-03-11 03:35:00,
2013-03-10 20:40:00,52.3,45.6,30.25,WSW,248,0.0,0.0,78,0.00,OVC,,0.00,0.0,WeatherDisplay:10.37,2013-03-11 03:40:00,
2013-03-10 20:45:00,52.3,46.0,30.25,WSW,248,0.0,0.0,79,0.00,OVC,,0.00,0.0,WeatherDisplay:10.37,2013-03-11 03:45:00,
2013-03-10 20:50:00,52.2,45.9,30.25,WSW,248,0.0,0.0,79,0.00,OVC,,0.00,0.0,WeatherDisplay:10.37,2013-03-11 03:50:00,
2013-03-10 20:55:00,52.2,46.2,30.25,WSW,248,0.0,0.0,80,0.00,OVC,,0.00,0.0,WeatherDisplay:10.37,2013-03-11 03:55:00,
2013-03-10 21:00:00,52.5,47.5,30.25,WSW,248,0.0,0.0,83,0.00,OVC,,0.00,0.0,WeatherDisplay:10.37,2013-03-11 04:00:00,
2013-03-10 21:05:00,52.9,48.2,30.25,WSW,248,0.0,0.0,84,0.00,OVC,,0.00,0.0,WeatherDisplay:10.37,2013-03-11 04:05:00,
2013-03-10 21:10:00,52.7,46.4,30.25,WSW,241,1.8,3.5,79,0.00,OVC,,0.00,0.0,WeatherDisplay:10.37,2013-03-11 04:10:00,
2013-03-10 21:15:00,52.4,45.7,30.25,WSW,240,0.4,2.0,78,0.00,OVC,,0.00,0.0,WeatherDisplay:10.37,2013-03-11 04:15:00,
2013-03-10 21:20:00,52.2,45.9,30.24,SW,226,1.6,3.5,79,0.00,OVC,,0.00,0.0,WeatherDisplay:10.37,2013-03-11 04:20:00,
2013-03-10 21:25:00,51.9,45.9,30.25,SW,217,4.4,5.8,80,0.00,OVC,,0.00,0.0,WeatherDisplay:10.37,2013-03-11 04:25:00,
2013-03-10 21:30:00,51.7,46.1,30.25,SW,215,0.1,1.1,81,0.00,OVC,,0.00,0.0,WeatherDisplay:10.37,2013-03-11 04:30:00,
2013-03-10 21:35:00,51.5,46.2,30.25,SW,215,0.0,0.0,82,0.00,OVC,,0.00,0.0,WeatherDisplay:10.37,2013-03-11 04:35:00,
2013-03-10 21:40:00,51.3,46.0,30.25,SW,215,0.0,0.0,82,0.00,OVC,,0.00,0.0,WeatherDisplay:10.37,2013-03-11 04:40:00,
2013-03-10 21:45:00,51.2,45.9,30.25,SW,215,0.5,1.0,82,0.00,OVC,,0.00,0.0,WeatherDisplay:10.37,2013-03-11 04:45:00,
2013-03-10 21:50:00,51.2,45.9,30.25,SW,215,0.0,0.0,82,0.00,OVC,,0.00,0.0,WeatherDisplay:10.37,2013-03-11 04:50:00,
2013-03-10 21:55:00,51.1,45.5,30.25,SW,215,0.6,2.3,81,0.00,OVC,,0.00,0.0,WeatherDisplay:10.37,2013-03-11 04:55:00,
2013-03-10 22:00:00,51.0,45.4,30.25,SW,215,0.6,3.5,81,0.00,OVC,,0.00,0.0,WeatherDisplay:10.37,2013-03-11 05:00:00,
2013-03-10 22:05:00,51.1,45.5,30.25,SW,227,3.9,5.8,81,0.00,OVC,,0.00,0.0,WeatherDisplay:10.37,2013-03-11 05:05:00,
2013-03-10 22:10:00,51.1,45.8,30.26,WSW,237,2.4,5.8,82,0.00,OVC,,0.00,0.0,WeatherDisplay:10.37,2013-03-11 05:10:00,
2013-03-10 22:15:00,51.1,46.1,30.26,SW,229,3.8,5.8,83,0.00,OVC,,0.00,0.0,WeatherDisplay:10.37,2013-03-11 05:15:00,
2013-03-10 22:20:00,51.0,46.0,30.25,SW,235,3.1,5.8,83,0.00,OVC,,0.00,0.0,WeatherDisplay:10.37,2013-03-11 05:20:00,
2013-03-10 22:25:00,50.8,46.1,30.25,SW,219,4.8,5.8,84,0.00,OVC,,0.00,0.0,WeatherDisplay:10.37,2013-03-11 05:25:00,
2013-03-10 22:30:00,50.7,46.0,30.25,WSW,238,4.5,7.0,84,0.00,OVC,,0.00,0.0,WeatherDisplay:10.37,2013-03-11 05:30:00,
2013-03-10 22:35:00,50.6,45.9,30.25,WSW,245,4.5,5.8,84,0.00,OVC,,0.00,0.0,WeatherDisplay:10.37,2013-03-11 05:35:00,
2013-03-10 22:40:00,50.5,46.2,30.25,WSW,246,1.7,3.5,85,0.00,OVC,,0.00,0.0,WeatherDisplay:10.37,2013-03-11 05:40:00,
2013-03-10 22:46:00,50.4,46.1,30.25,WSW,255,4.7,6.9,85,0.00,OVC,,0.00,0.0,WeatherDisplay:10.37,2013-03-11 05:46:00,
2013-03-10 22:51:00,50.3,46.0,30.25,WSW,247,2.4,3.5,85,0.00,OVC,,0.00,0.0,WeatherDisplay:10.37,2013-03-11 05:51:00,
2013-03-10 22:56:00,50.3,46.0,30.25,WSW,256,4.1,5.8,85,0.00,OVC,,0.00,0.0,WeatherDisplay:10.37,2013-03-11 05:56:00,
2013-03-10 23:01:00,50.2,46.2,30.25,WSW,240,3.7,9.2,86,0.00,OVC,,0.00,0.0,WeatherDisplay:10.37,2013-03-11 06:01:00,
2013-03-10 23:06:00,50.1,46.1,30.25,SW,226,1.5,3.5,86,0.00,OVC,,0.00,0.0,WeatherDisplay:10.37,2013-03-11 06:06:00,
2013-03-10 23:11:00,50.0,46.0,30.25,SW,229,2.8,4.0,86,0.00,OVC,,0.00,0.0,WeatherDisplay:10.37,2013-03-11 06:11:00,
2013-03-10 23:16:00,49.9,46.2,30.26,SW,229,3.1,4.6,87,0.00,OVC,,0.00,0.0,WeatherDisplay:10.37,2013-03-11 06:16:00,
2013-03-10 23:21:00,49.8,46.1,30.25,SW,229,1.8,3.5,87,0.00,OVC,,0.00,0.0,WeatherDisplay:10.37,2013-03-11 06:21:00,
2013-03-10 23:26:00,49.8,46.1,30.25,SW,231,2.8,3.5,87,0.00,OVC,,0.00,0.0,WeatherDisplay:10.37,2013-03-11 06:26:00,
2013-03-10 23:31:00,49.7,46.0,30.25,SW,227,1.5,5.0,87,0.00,OVC,,0.00,0.0,WeatherDisplay:10.37,2013-03-11 06:31:00,
2013-03-10 23:36:00,49.6,45.9,30.25,SW,233,0.3,3.0,87,0.00,OVC,,0.00,0.0,WeatherDisplay:10.37,2013-03-11 06:36:00,
2013-03-10 23:41:00,49.6,45.9,30.25,SW,233,0.0,0.0,87,0.00,OVC,,0.00,0.0,WeatherDisplay:10.37,2013-03-11 06:41:00,
2013-03-10 23:46:00,49.5,45.8,30.25,SW,233,0.0,0.0,87,0.00,OVC,,0.00,0.0,WeatherDisplay:10.37,2013-03-11 06:46:00,
2013-03-10 23:51:00,49.4,45.7,30.25,SW,233,0.2,0.0,87,0.00,OVC,,0.00,0.0,WeatherDisplay:10.37,2013-03-11 06:51:00,
2013-03-10 23:56:00,49.4,45.7,30.25,SW,232,0.0,1.1,87,0.00,OVC,,0.00,0.0,WeatherDisplay:10.37,2013-03-11 06:56:00,